Time;durP1;ratioP1;P1;durP2;ratioP2;P2;SDS_P1;SDS_P2;PMS_P1;PMS_P2;Temp;Humidity;BMP_temperature;BMP_pressure;BME280_temperature;BME280_humidity;BME280_pressure;Samples;Min_cycle;Max_cycle;Signal;HPM_P1;HPM_P2
2023/10/24 00:00:23;;;;;;;7.65;3.90;;;;;;;;;;5004972;28;20041;-81
2023/10/24 00:02:48;;;;;;;7.35;3.90;;;;;;;;;;5006954;28;20072;-81
2023/10/24 00:05:13;;;;;;;5.78;3.38;;;;;;;;;;5005048;28;20038;-82
2023/10/24 00:07:39;;;;;;;5.28;3.20;;;;;;;;;;5005133;28;20042;-81
2023/10/24 00:10:04;;;;;;;5.85;3.45;;;;;;;;;;5006202;28;20030;-81
2023/10/24 00:12:30;;;;;;;6.18;3.80;;;;;;;;;;5000965;28;20026;-81
2023/10/24 00:14:56;;;;;;;7.25;3.20;;;;;;;;;;4987500;28;20022;-81
2023/10/24 00:17:22;;;;;;;7.13;3.20;;;;;;;;;;4985439;28;20430;-81
2023/10/24 00:19:47;;;;;;;5.88;3.03;;;;;;;;;;4985572;28;20046;-82
2023/10/24 00:22:13;;;;;;;4.28;2.80;;;;;;;;;;4986074;28;20069;-82
2023/10/24 00:24:38;;;;;;;5.25;2.80;;;;;;;;;;4986780;28;20092;-82
2023/10/24 00:27:04;;;;;;;5.07;2.60;;;;;;;;;;4985711;28;20030;-81
2023/10/24 00:29:29;;;;;;;5.00;2.53;;;;;;;;;;4985402;28;20429;-81
2023/10/24 00:31:55;;;;;;;5.40;2.00;;;;;;;;;;4987312;28;20037;-82
2023/10/24 00:34:20;;;;;;;3.92;2.03;;;;;;;;;;4998898;28;20045;-82
2023/10/24 00:36:46;;;;;;;3.50;1.90;;;;;;;;;;5009532;28;20037;-81
2023/10/24 00:39:11;;;;;;;2.05;1.55;;;;;;;;;;5019503;28;20021;-81
2023/10/24 00:41:37;;;;;;;4.68;2.33;;;;;;;;;;5011749;28;20044;-82
2023/10/24 00:44:02;;;;;;;3.05;1.90;;;;;;;;;;5005741;28;20034;-81
2023/10/24 00:46:28;;;;;;;3.85;2.50;;;;;;;;;;5004689;28;20048;-82
2023/10/24 00:48:54;;;;;;;4.28;2.30;;;;;;;;;;5003871;28;20080;-81
2023/10/24 00:51:21;;;;;;;3.72;2.08;;;;;;;;;;5004818;28;20045;-81
2023/10/24 00:53:47;;;;;;;5.10;2.35;;;;;;;;;;5004270;28;20021;-81
2023/10/24 00:56:14;;;;;;;5.53;2.55;;;;;;;;;;5001414;28;20681;-81
2023/10/24 00:58:40;;;;;;;4.43;2.47;;;;;;;;;;5005392;28;20052;-81
2023/10/24 01:01:10;;;;;;;5.32;2.70;;;;;;;;;;5004568;28;20640;-82
2023/10/24 01:03:37;;;;;;;5.18;2.78;;;;;;;;;;5003504;28;20032;-81
2023/10/24 01:06:03;;;;;;;4.72;2.53;;;;;;;;;;5006199;28;20400;-82
2023/10/24 01:08:28;;;;;;;5.82;2.72;;;;;;;;;;5005436;28;20030;-82
2023/10/24 01:10:53;;;;;;;4.95;2.70;;;;;;;;;;5005321;28;20046;-81
2023/10/24 01:13:19;;;;;;;3.70;2.45;;;;;;;;;;5005504;28;20038;-82
2023/10/24 01:15:44;;;;;;;3.95;2.70;;;;;;;;;;5003421;28;20053;-82
2023/10/24 01:18:10;;;;;;;4.45;2.38;;;;;;;;;;5005985;28;20547;-81
2023/10/24 01:20:39;;;;;;;5.95;2.47;;;;;;;;;;5003094;28;20121;-81
2023/10/24 01:23:08;;;;;;;4.90;2.38;;;;;;;;;;5005044;28;20465;-82
2023/10/24 01:25:38;;;;;;;4.35;2.60;;;;;;;;;;5004589;28;20034;-81
2023/10/24 01:28:05;;;;;;;3.53;2.22;;;;;;;;;;5004095;28;20127;-81
2023/10/24 01:30:30;;;;;;;4.18;2.38;;;;;;;;;;5003217;28;20026;-81
2023/10/24 01:32:56;;;;;;;3.33;2.05;;;;;;;;;;5006194;28;20401;-82
2023/10/24 01:35:21;;;;;;;3.42;2.30;;;;;;;;;;5004998;28;20033;-81
2023/10/24 01:37:46;;;;;;;3.85;2.30;;;;;;;;;;5005816;28;20045;-81
2023/10/24 01:40:12;;;;;;;3.97;2.33;;;;;;;;;;5004602;28;20033;-81
2023/10/24 01:42:38;;;;;;;4.28;2.22;;;;;;;;;;5003971;28;20172;-81
2023/10/24 01:45:05;;;;;;;4.22;2.03;;;;;;;;;;5005488;28;20026;-82
2023/10/24 01:47:30;;;;;;;4.35;2.40;;;;;;;;;;5004027;28;20045;-82
2023/10/24 01:49:56;;;;;;;3.72;2.33;;;;;;;;;;5004935;28;20038;-81
2023/10/24 01:52:21;;;;;;;4.13;2.75;;;;;;;;;;5006029;28;20510;-82
2023/10/24 01:54:46;;;;;;;3.92;2.17;;;;;;;;;;5006762;28;20053;-82
2023/10/24 01:57:12;;;;;;;5.18;2.47;;;;;;;;;;5009803;28;20390;-82
2023/10/24 01:59:37;;;;;;;4.80;2.47;;;;;;;;;;5016988;28;20038;-82
2023/10/24 02:02:03;;;;;;;5.07;2.83;;;;;;;;;;5018176;28;20044;-81
2023/10/24 02:04:28;;;;;;;4.32;2.67;;;;;;;;;;5005655;28;20030;-82
2023/10/24 02:06:54;;;;;;;5.57;2.78;;;;;;;;;;5004478;28;20517;-82
2023/10/24 02:09:19;;;;;;;6.13;3.00;;;;;;;;;;5003782;28;20060;-81
2023/10/24 02:11:45;;;;;;;6.50;2.60;;;;;;;;;;5004083;28;20099;-81
2023/10/24 02:14:10;;;;;;;5.90;3.10;;;;;;;;;;4997570;28;20045;-82
2023/10/24 02:16:35;;;;;;;6.82;3.50;;;;;;;;;;4984873;28;20050;-81
2023/10/24 02:19:01;;;;;;;5.70;3.05;;;;;;;;;;4985558;28;20057;-82
2023/10/24 02:21:26;;;;;;;5.60;3.15;;;;;;;;;;4987691;28;20052;-81
2023/10/24 02:23:51;;;;;;;7.30;3.60;;;;;;;;;;5000494;28;20037;-81
2023/10/24 02:26:17;;;;;;;8.38;3.67;;;;;;;;;;5002342;28;20045;-82
2023/10/24 02:28:42;;;;;;;7.57;3.97;;;;;;;;;;5004820;28;20046;-81
2023/10/24 02:31:08;;;;;;;6.95;3.50;;;;;;;;;;5003923;28;20045;-82
2023/10/24 02:33:34;;;;;;;8.57;3.97;;;;;;;;;;5005323;28;20113;-82
2023/10/24 02:36:09;;;;;;;9.52;4.53;;;;;;;;;;5003328;28;20030;-82
2023/10/24 02:38:35;;;;;;;9.48;4.47;;;;;;;;;;5003295;28;20054;-82
2023/10/24 02:41:00;;;;;;;11.18;5.10;;;;;;;;;;5004640;28;20081;-82
2023/10/24 02:43:26;;;;;;;9.95;4.38;;;;;;;;;;5023159;28;20034;-82
2023/10/24 02:45:52;;;;;;;14.20;4.50;;;;;;;;;;5008291;28;20038;-82
2023/10/24 02:48:17;;;;;;;9.35;5.00;;;;;;;;;;5006862;28;20129;-82
2023/10/24 02:50:43;;;;;;;10.93;5.55;;;;;;;;;;5006816;28;20076;-82
2023/10/24 02:53:09;;;;;;;11.85;5.75;;;;;;;;;;5008620;28;20087;-82
2023/10/24 02:55:35;;;;;;;15.10;6.50;;;;;;;;;;5008622;28;20053;-82
2023/10/24 02:58:00;;;;;;;15.70;6.80;;;;;;;;;;5000350;28;20046;-82
2023/10/24 03:00:26;;;;;;;11.30;6.35;;;;;;;;;;4988558;28;20034;-82
2023/10/24 03:02:51;;;;;;;13.02;6.40;;;;;;;;;;4989260;28;20026;-83
2023/10/24 03:05:16;;;;;;;10.70;5.95;;;;;;;;;;4987300;28;20588;-82
2023/10/24 03:07:42;;;;;;;11.15;5.78;;;;;;;;;;4986779;28;20039;-82
2023/10/24 03:10:08;;;;;;;14.15;6.47;;;;;;;;;;4989049;28;20049;-82
2023/10/24 03:12:33;;;;;;;12.93;6.20;;;;;;;;;;4991528;28;20076;-81
2023/10/24 03:14:58;;;;;;;11.73;6.32;;;;;;;;;;5009617;28;20037;-82
2023/10/24 03:17:24;;;;;;;16.20;5.70;;;;;;;;;;5010628;28;20077;-81
2023/10/24 03:19:49;;;;;;;11.52;5.93;;;;;;;;;;5017257;28;20065;-82
2023/10/24 03:22:15;;;;;;;13.15;6.30;;;;;;;;;;5014668;28;20588;-82
2023/10/24 03:24:41;;;;;;;13.82;6.10;;;;;;;;;;5007611;28;20033;-81
2023/10/24 03:27:07;;;;;;;12.07;5.25;;;;;;;;;;5007690;28;20584;-81
2023/10/24 03:29:36;;;;;;;13.38;6.15;;;;;;;;;;5005926;28;20428;-82
2023/10/24 03:32:02;;;;;;;12.25;5.88;;;;;;;;;;5005863;28;20049;-82
2023/10/24 03:34:29;;;;;;;12.65;5.65;;;;;;;;;;5005851;28;20046;-81
2023/10/24 03:36:54;;;;;;;12.80;6.40;;;;;;;;;;5005506;28;20527;-82
2023/10/24 03:39:19;;;;;;;14.15;6.00;;;;;;;;;;5003822;28;20029;-82
2023/10/24 03:41:45;;;;;;;10.82;6.15;;;;;;;;;;5004889;28;20029;-81
2023/10/24 03:44:10;;;;;;;17.05;6.50;;;;;;;;;;5005394;28;20045;-81
2023/10/24 03:46:35;;;;;;;13.27;6.35;;;;;;;;;;5007142;28;20053;-81
2023/10/24 03:49:02;;;;;;;11.88;5.90;;;;;;;;;;5005637;28;20034;-82
2023/10/24 03:51:27;;;;;;;11.25;5.78;;;;;;;;;;5007042;28;20025;-81
2023/10/24 03:53:53;;;;;;;12.60;6.53;;;;;;;;;;5005473;28;20068;-81
2023/10/24 03:56:18;;;;;;;14.73;6.72;;;;;;;;;;5006572;28;20049;-82
2023/10/24 03:58:44;;;;;;;14.65;6.38;;;;;;;;;;5005044;28;20046;-82
2023/10/24 04:01:09;;;;;;;13.02;6.20;;;;;;;;;;5006489;28;20046;-81
2023/10/24 04:03:34;;;;;;;16.30;6.95;;;;;;;;;;5007534;28;20042;-82
2023/10/24 04:06:00;;;;;;;13.82;6.60;;;;;;;;;;5006774;28;20040;-82
2023/10/24 04:08:25;;;;;;;13.50;6.57;;;;;;;;;;5006932;28;20048;-82
2023/10/24 04:10:51;;;;;;;16.00;6.50;;;;;;;;;;5004809;28;20064;-81
2023/10/24 04:13:16;;;;;;;15.45;6.55;;;;;;;;;;4994743;28;20038;-81
2023/10/24 04:15:41;;;;;;;15.15;6.78;;;;;;;;;;4985702;28;20033;-82
2023/10/24 04:18:07;;;;;;;16.58;7.30;;;;;;;;;;4987152;28;20288;-82
2023/10/24 04:20:32;;;;;;;14.68;7.00;;;;;;;;;;4986849;28;20065;-81
2023/10/24 04:23:03;;;;;;;14.07;7.57;;;;;;;;;;4987502;28;20046;-82
2023/10/24 04:25:30;;;;;;;17.90;7.80;;;;;;;;;;4986601;28;20046;-82
2023/10/24 04:27:56;;;;;;;14.93;6.60;;;;;;;;;;5001468;28;20033;-82
2023/10/24 04:30:21;;;;;;;13.63;6.75;;;;;;;;;;5006539;28;20049;-82
2023/10/24 04:32:47;;;;;;;15.38;7.60;;;;;;;;;;5005620;28;20025;-82
2023/10/24 04:35:13;;;;;;;17.35;7.45;;;;;;;;;;5007201;28;20038;-82
2023/10/24 04:37:39;;;;;;;15.05;6.90;;;;;;;;;;5011162;28;20053;-82
2023/10/24 04:40:05;;;;;;;17.52;7.25;;;;;;;;;;5019921;28;20041;-82
2023/10/24 04:42:30;;;;;;;14.70;7.50;;;;;;;;;;5019587;28;20030;-82
2023/10/24 04:44:55;;;;;;;15.98;7.38;;;;;;;;;;5009637;28;20036;-82
2023/10/24 04:47:21;;;;;;;15.20;7.25;;;;;;;;;;5007126;28;20072;-82
2023/10/24 04:49:46;;;;;;;12.18;6.70;;;;;;;;;;5007040;28;20048;-82
2023/10/24 04:52:12;;;;;;;14.07;7.05;;;;;;;;;;5004851;28;20048;-82
2023/10/24 04:54:38;;;;;;;12.48;6.75;;;;;;;;;;5006581;28;20066;-82
2023/10/24 04:57:03;;;;;;;14.82;6.43;;;;;;;;;;5006346;28;20037;-82
2023/10/24 04:59:29;;;;;;;13.68;6.68;;;;;;;;;;5005909;28;20065;-82
2023/10/24 05:01:54;;;;;;;16.05;8.15;;;;;;;;;;4993173;28;20073;-82
2023/10/24 05:04:20;;;;;;;14.50;6.78;;;;;;;;;;4985385;28;20041;-82
2023/10/24 05:06:45;;;;;;;15.15;6.55;;;;;;;;;;4986573;28;20083;-82
2023/10/24 05:09:11;;;;;;;15.10;6.63;;;;;;;;;;4985572;28;20408;-82
2023/10/24 05:11:39;;;;;;;15.68;6.93;;;;;;;;;;4986302;28;20034;-82
2023/10/24 05:14:04;;;;;;;12.23;6.25;;;;;;;;;;5016910;28;20057;-82
2023/10/24 05:16:30;;;;;;;11.00;6.32;;;;;;;;;;5003358;28;20063;-81
2023/10/24 05:18:55;;;;;;;13.05;6.78;;;;;;;;;;5002006;28;20452;-81
2023/10/24 05:21:21;;;;;;;14.23;6.90;;;;;;;;;;5003588;28;20036;-82
2023/10/24 05:23:46;;;;;;;13.48;6.22;;;;;;;;;;5004241;28;20572;-82
2023/10/24 05:26:11;;;;;;;14.25;6.32;;;;;;;;;;5003726;28;20333;-82
2023/10/24 05:28:37;;;;;;;13.73;6.07;;;;;;;;;;5003255;28;20037;-82
2023/10/24 05:31:07;;;;;;;14.38;6.03;;;;;;;;;;5003685;28;20049;-82
2023/10/24 05:33:34;;;;;;;12.18;5.88;;;;;;;;;;5005662;28;20036;-82
2023/10/24 05:35:59;;;;;;;11.20;6.07;;;;;;;;;;5004358;28;20049;-82
2023/10/24 05:38:25;;;;;;;10.63;5.68;;;;;;;;;;5003428;28;20073;-82
2023/10/24 05:40:50;;;;;;;9.90;5.65;;;;;;;;;;5003747;28;20517;-83
2023/10/24 05:43:18;;;;;;;14.90;6.00;;;;;;;;;;5004249;28;20053;-81
2023/10/24 05:45:44;;;;;;;9.90;5.53;;;;;;;;;;5004544;28;20041;-79
2023/10/24 05:48:09;;;;;;;11.85;5.93;;;;;;;;;;5005695;28;20060;-78
2023/10/24 05:50:36;;;;;;;10.65;6.28;;;;;;;;;;5002843;28;20040;-79
2023/10/24 05:53:02;;;;;;;11.55;5.90;;;;;;;;;;4997515;28;20548;-78
2023/10/24 05:55:27;;;;;;;9.38;5.95;;;;;;;;;;5002533;28;20041;-78
2023/10/24 05:57:53;;;;;;;11.02;5.88;;;;;;;;;;5004461;28;20124;-78
2023/10/24 06:00:18;;;;;;;10.93;5.88;;;;;;;;;;5015098;28;20048;-78
2023/10/24 06:02:43;;;;;;;11.77;5.55;;;;;;;;;;5014510;28;20030;-79
2023/10/24 06:05:09;;;;;;;10.15;5.68;;;;;;;;;;4995128;28;20080;-78
2023/10/24 06:07:34;;;;;;;11.98;6.22;;;;;;;;;;4990571;28;20057;-78
2023/10/24 06:10:00;;;;;;;9.18;5.13;;;;;;;;;;4999741;28;20034;-79
2023/10/24 06:12:28;;;;;;;10.77;5.70;;;;;;;;;;5000103;28;20089;-78
2023/10/24 06:14:53;;;;;;;15.20;6.53;;;;;;;;;;5001382;28;20399;-78
2023/10/24 06:17:19;;;;;;;12.20;6.53;;;;;;;;;;4999332;28;20777;-78
2023/10/24 06:19:46;;;;;;;12.88;5.88;;;;;;;;;;4994928;28;20046;-79
2023/10/24 06:22:12;;;;;;;10.88;6.03;;;;;;;;;;4998572;28;20145;-79
2023/10/24 06:24:37;;;;;;;12.23;5.80;;;;;;;;;;4994911;28;20113;-79
2023/10/24 06:27:03;;;;;;;13.02;5.85;;;;;;;;;;5008120;28;20092;-78
2023/10/24 06:29:32;;;;;;;11.30;5.75;;;;;;;;;;4996591;28;20093;-78
2023/10/24 06:31:57;;;;;;;14.95;6.25;;;;;;;;;;5004806;28;20065;-78
2023/10/24 06:34:23;;;;;;;10.73;6.30;;;;;;;;;;4989423;28;20078;-76
2023/10/24 06:36:48;;;;;;;12.57;5.47;;;;;;;;;;4967957;28;20124;-77
2023/10/24 06:39:14;;;;;;;10.93;6.18;;;;;;;;;;4996329;28;20022;-77
2023/10/24 06:41:41;;;;;;;12.43;6.00;;;;;;;;;;4999204;28;20045;-76
2023/10/24 06:44:06;;;;;;;12.85;5.93;;;;;;;;;;4996089;28;20046;-76
2023/10/24 06:46:31;;;;;;;11.98;5.90;;;;;;;;;;5004600;28;20049;-76
2023/10/24 06:48:57;;;;;;;10.23;5.75;;;;;;;;;;5004095;28;20038;-76
2023/10/24 06:51:24;;;;;;;11.70;5.75;;;;;;;;;;5005162;28;20032;-76
2023/10/24 06:53:49;;;;;;;12.88;5.35;;;;;;;;;;4994313;28;20160;-76
2023/10/24 06:56:14;;;;;;;15.02;5.80;;;;;;;;;;5001962;28;20128;-76
2023/10/24 06:58:40;;;;;;;10.77;5.70;;;;;;;;;;5002193;28;20042;-76
2023/10/24 07:01:06;;;;;;;11.02;5.63;;;;;;;;;;5002604;28;20061;-76
2023/10/24 07:03:31;;;;;;;12.73;6.25;;;;;;;;;;4998619;28;20413;-77
2023/10/24 07:05:56;;;;;;;14.07;6.57;;;;;;;;;;5003907;28;20112;-76
2023/10/24 07:08:22;;;;;;;12.55;6.00;;;;;;;;;;5006055;28;20045;-76
2023/10/24 07:10:48;;;;;;;12.85;5.65;;;;;;;;;;5003019;28;20039;-76
2023/10/24 07:13:13;;;;;;;15.73;6.43;;;;;;;;;;5004225;28;20124;-76
2023/10/24 07:15:39;;;;;;;14.75;6.28;;;;;;;;;;4998672;28;20045;-76
2023/10/24 07:18:05;;;;;;;11.30;6.40;;;;;;;;;;5008269;28;20041;-76
2023/10/24 07:20:36;;;;;;;12.13;5.80;;;;;;;;;;5002179;28;20050;-77
2023/10/24 07:23:02;;;;;;;11.80;6.43;;;;;;;;;;5005979;28;20034;-76
2023/10/24 07:25:27;;;;;;;10.82;5.82;;;;;;;;;;5001646;28;20188;-76
2023/10/24 07:27:53;;;;;;;12.48;6.32;;;;;;;;;;5001480;28;20140;-77
2023/10/24 07:30:19;;;;;;;14.52;6.63;;;;;;;;;;4996979;28;20064;-76
2023/10/24 07:32:44;;;;;;;16.05;6.22;;;;;;;;;;4974579;28;20045;-78
2023/10/24 07:35:09;;;;;;;11.18;6.32;;;;;;;;;;4989058;28;20054;-77
2023/10/24 07:37:36;;;;;;;13.32;6.07;;;;;;;;;;4999797;28;20429;-76
2023/10/24 07:40:02;;;;;;;11.40;5.80;;;;;;;;;;5005448;28;20049;-77
2023/10/24 07:42:28;;;;;;;14.70;6.65;;;;;;;;;;5000183;28;20037;-77
2023/10/24 07:44:54;;;;;;;12.88;6.50;;;;;;;;;;5001054;28;20037;-77
2023/10/24 07:47:19;;;;;;;14.68;7.03;;;;;;;;;;4998318;28;20040;-77
2023/10/24 07:49:45;;;;;;;13.20;6.93;;;;;;;;;;4997194;28;20042;-77
2023/10/24 07:52:10;;;;;;;13.00;7.18;;;;;;;;;;5015050;28;20611;-77
2023/10/24 07:54:35;;;;;;;12.77;6.22;;;;;;;;;;5004791;28;20466;-81
2023/10/24 07:57:02;;;;;;;13.93;7.22;;;;;;;;;;5006062;28;20025;-77
2023/10/24 07:59:28;;;;;;;14.63;7.05;;;;;;;;;;5005236;28;20045;-77
2023/10/24 08:01:53;;;;;;;15.52;6.80;;;;;;;;;;5005229;28;20056;-77
2023/10/24 08:04:19;;;;;;;13.95;6.57;;;;;;;;;;4999383;28;20072;-78
2023/10/24 08:06:44;;;;;;;14.40;7.40;;;;;;;;;;5001668;28;20053;-76
2023/10/24 08:09:09;;;;;;;14.38;7.55;;;;;;;;;;5006101;28;20030;-76
2023/10/24 08:11:35;;;;;;;14.23;7.18;;;;;;;;;;5005782;28;20509;-76
2023/10/24 08:14:00;;;;;;;11.90;6.70;;;;;;;;;;5006060;28;20497;-77
2023/10/24 08:16:26;;;;;;;22.02;9.07;;;;;;;;;;5020799;28;20052;-77
2023/10/24 08:18:51;;;;;;;17.75;8.55;;;;;;;;;;5003148;28;20041;-77
2023/10/24 08:21:16;;;;;;;13.88;6.95;;;;;;;;;;5005973;28;20038;-78
2023/10/24 08:23:42;;;;;;;14.45;7.90;;;;;;;;;;5004169;28;20056;-78
2023/10/24 08:26:07;;;;;;;17.08;6.68;;;;;;;;;;5002427;28;20642;-78
2023/10/24 08:28:33;;;;;;;12.93;6.30;;;;;;;;;;5006019;28;20587;-78
2023/10/24 08:30:58;;;;;;;11.65;6.15;;;;;;;;;;5004467;28;20461;-78
2023/10/24 08:33:24;;;;;;;13.95;5.75;;;;;;;;;;5006507;28;20036;-78
2023/10/24 08:35:49;;;;;;;15.80;6.40;;;;;;;;;;5007113;28;20029;-78
2023/10/24 08:38:15;;;;;;;11.18;5.80;;;;;;;;;;5007970;28;20132;-78
2023/10/24 08:40:40;;;;;;;10.20;4.97;;;;;;;;;;5016425;28;20101;-77
2023/10/24 08:43:06;;;;;;;9.45;4.72;;;;;;;;;;5014451;28;20451;-77
2023/10/24 08:45:32;;;;;;;8.48;4.40;;;;;;;;;;5002431;28;20041;-77
2023/10/24 08:47:59;;;;;;;7.78;4.53;;;;;;;;;;5005838;28;20021;-78
2023/10/24 08:50:25;;;;;;;8.27;4.80;;;;;;;;;;5004627;28;20106;-78
2023/10/24 08:52:51;;;;;;;11.43;5.13;;;;;;;;;;5003665;28;20121;-77
2023/10/24 08:55:18;;;;;;;8.70;4.60;;;;;;;;;;5004979;28;20708;-77
2023/10/24 08:57:45;;;;;;;8.73;4.38;;;;;;;;;;5004443;28;20045;-77
2023/10/24 09:00:13;;;;;;;7.15;4.20;;;;;;;;;;5006206;28;20026;-77
2023/10/24 09:02:41;;;;;;;8.35;4.63;;;;;;;;;;4990696;28;20113;-78
2023/10/24 09:05:09;;;;;;;7.20;4.00;;;;;;;;;;4999316;28;20069;-76
2023/10/24 09:07:35;;;;;;;8.07;4.32;;;;;;;;;;4984580;28;20034;-76
2023/10/24 09:10:01;;;;;;;7.70;4.25;;;;;;;;;;4985802;28;20062;-76
2023/10/24 09:12:30;;;;;;;7.85;4.78;;;;;;;;;;4988752;28;20053;-76
2023/10/24 09:14:56;;;;;;;9.18;4.32;;;;;;;;;;5005528;28;20037;-76
2023/10/24 09:17:23;;;;;;;6.97;4.18;;;;;;;;;;5005204;28;20147;-76
2023/10/24 09:19:49;;;;;;;7.05;3.45;;;;;;;;;;5005199;28;20045;-76
2023/10/24 09:22:16;;;;;;;4.00;2.42;;;;;;;;;;5003487;28;20394;-76
2023/10/24 09:24:45;;;;;;;5.38;3.10;;;;;;;;;;5005061;28;20088;-76
2023/10/24 09:27:14;;;;;;;3.72;2.70;;;;;;;;;;5006120;28;20022;-76
2023/10/24 09:29:40;;;;;;;4.72;2.63;;;;;;;;;;5003612;28;20517;-76
2023/10/24 09:32:05;;;;;;;6.55;3.60;;;;;;;;;;5003086;28;20049;-76
2023/10/24 09:34:32;;;;;;;6.70;3.30;;;;;;;;;;5004924;28;20049;-76
2023/10/24 09:37:07;;;;;;;4.88;2.65;;;;;;;;;;5004983;28;20108;-76
2023/10/24 09:39:49;;;;;;;5.75;3.35;;;;;;;;;;5003412;28;20419;-76
2023/10/24 09:42:18;;;;;;;5.65;3.00;;;;;;;;;;5005530;28;20516;-76
2023/10/24 09:44:43;;;;;;;5.15;3.00;;;;;;;;;;5003791;28;20034;-76
2023/10/24 09:47:09;;;;;;;4.90;2.63;;;;;;;;;;5004388;28;20037;-76
2023/10/24 09:49:35;;;;;;;4.30;2.63;;;;;;;;;;5003726;28;20099;-76
2023/10/24 09:52:01;;;;;;;5.22;2.50;;;;;;;;;;5007927;28;20034;-76
2023/10/24 09:54:27;;;;;;;3.90;2.65;;;;;;;;;;5008913;28;20568;-76
2023/10/24 09:56:54;;;;;;;5.20;2.97;;;;;;;;;;5005864;28;20022;-76
2023/10/24 09:59:20;;;;;;;5.80;3.42;;;;;;;;;;5012260;28;20042;-76
2023/10/24 10:01:47;;;;;;;7.03;3.38;;;;;;;;;;5038014;28;20038;-76
2023/10/24 10:04:13;;;;;;;7.18;3.55;;;;;;;;;;5022894;28;20440;-76
2023/10/24 10:06:41;;;;;;;6.47;3.75;;;;;;;;;;4990569;28;20109;-76
2023/10/24 10:09:10;;;;;;;7.20;3.40;;;;;;;;;;5004798;28;20454;-76
2023/10/24 10:11:36;;;;;;;5.57;2.90;;;;;;;;;;5003742;28;20027;-76
2023/10/24 10:14:22;;;;;;;3.50;2.28;;;;;;;;;;5005006;28;21050;-76
2023/10/24 10:17:20;;;;;;;4.75;2.70;;;;;;;;;;5007060;28;20033;-76
2023/10/24 10:20:06;;;;;;;5.95;3.10;;;;;;;;;;4988035;28;20039;-76
2023/10/24 10:22:44;;;;;;;5.15;2.97;;;;;;;;;;4988434;28;20537;-76
2023/10/24 10:25:49;;;;;;;6.53;3.33;;;;;;;;;;4987438;28;20773;-76
2023/10/24 10:28:31;;;;;;;5.95;3.22;;;;;;;;;;4988461;28;20034;-76
2023/10/24 10:31:18;;;;;;;5.43;3.33;;;;;;;;;;4988688;28;20023;-76
2023/10/24 10:33:43;;;;;;;4.90;3.50;;;;;;;;;;4986479;28;20065;-76
2023/10/24 10:36:09;;;;;;;8.30;3.92;;;;;;;;;;4988860;28;20033;-76
2023/10/24 10:38:45;;;;;;;6.80;3.80;;;;;;;;;;4986391;28;20034;-76
2023/10/24 10:41:21;;;;;;;6.82;3.95;;;;;;;;;;4987150;28;20065;-76
2023/10/24 10:43:47;;;;;;;6.55;4.50;;;;;;;;;;4987561;28;20585;-76
2023/10/24 10:46:16;;;;;;;8.95;4.00;;;;;;;;;;4987862;28;20121;-76
2023/10/24 10:48:42;;;;;;;7.97;4.25;;;;;;;;;;4988010;28;20030;-76
2023/10/24 10:51:15;;;;;;;6.80;4.20;;;;;;;;;;4988199;28;20032;-76
2023/10/24 10:53:55;;;;;;;6.50;4.80;;;;;;;;;;4988195;28;20038;-76
2023/10/24 10:56:35;;;;;;;8.68;4.38;;;;;;;;;;4989538;28;20057;-76
2023/10/24 10:59:07;;;;;;;10.65;5.05;;;;;;;;;;5007305;28;20037;-76
2023/10/24 11:01:58;;;;;;;9.00;4.95;;;;;;;;;;5006312;28;20540;-76
2023/10/24 11:04:24;;;;;;;9.15;4.85;;;;;;;;;;5005882;28;20038;-75
2023/10/24 11:06:59;;;;;;;7.22;4.10;;;;;;;;;;5005684;28;20049;-76
2023/10/24 11:09:33;;;;;;;7.32;4.03;;;;;;;;;;5007375;28;20030;-76
2023/10/24 11:12:21;;;;;;;12.98;4.22;;;;;;;;;;5006501;28;20014;-76
2023/10/24 11:15:13;;;;;;;7.00;3.92;;;;;;;;;;4986690;28;20046;-76
2023/10/24 11:17:39;;;;;;;8.27;4.20;;;;;;;;;;4987307;28;20149;-76
2023/10/24 11:20:05;;;;;;;9.93;4.68;;;;;;;;;;4993591;28;20038;-76
2023/10/24 11:22:31;;;;;;;8.35;4.28;;;;;;;;;;5000220;28;20039;-76
2023/10/24 11:24:58;;;;;;;7.65;4.75;;;;;;;;;;4992620;28;20029;-76
2023/10/24 11:27:23;;;;;;;7.90;4.45;;;;;;;;;;4987572;28;20454;-76
2023/10/24 11:29:52;;;;;;;11.15;4.43;;;;;;;;;;4987772;28;20109;-77
2023/10/24 11:32:17;;;;;;;8.13;4.88;;;;;;;;;;4987071;28;20034;-76
2023/10/24 11:34:44;;;;;;;8.75;5.00;;;;;;;;;;4987583;28;20030;-76
2023/10/24 11:37:09;;;;;;;9.05;4.93;;;;;;;;;;4987387;28;20036;-76
2023/10/24 11:39:35;;;;;;;10.13;4.55;;;;;;;;;;4987259;28;20026;-76
2023/10/24 11:42:04;;;;;;;7.82;4.30;;;;;;;;;;4987308;28;20026;-76
2023/10/24 11:44:29;;;;;;;9.40;4.40;;;;;;;;;;4987356;28;20044;-76
2023/10/24 11:46:55;;;;;;;7.90;4.35;;;;;;;;;;4984885;28;20030;-76
2023/10/24 11:49:31;;;;;;;7.75;4.00;;;;;;;;;;4985400;28;20033;-76
2023/10/24 11:51:56;;;;;;;7.50;4.00;;;;;;;;;;4985520;28;20042;-76
2023/10/24 11:54:22;;;;;;;11.45;4.78;;;;;;;;;;4986705;28;20026;-76
2023/10/24 11:56:47;;;;;;;7.85;4.28;;;;;;;;;;4985888;28;20030;-76
2023/10/24 11:59:13;;;;;;;6.88;3.15;;;;;;;;;;4999463;28;20054;-76
2023/10/24 12:01:42;;;;;;;5.07;2.85;;;;;;;;;;4985877;28;20034;-76
2023/10/24 12:04:11;;;;;;;7.60;2.60;;;;;;;;;;5001896;28;20030;-75
2023/10/24 12:06:37;;;;;;;4.80;2.25;;;;;;;;;;4996790;28;20025;-74
2023/10/24 12:09:04;;;;;;;6.65;2.30;;;;;;;;;;5006406;28;20489;-74
2023/10/24 12:11:32;;;;;;;3.83;2.00;;;;;;;;;;5004584;28;20525;-74
2023/10/24 12:13:57;;;;;;;6.45;2.92;;;;;;;;;;4990228;28;20038;-74
2023/10/24 12:16:28;;;;;;;3.70;2.13;;;;;;;;;;4986075;28;20041;-75
2023/10/24 12:18:53;;;;;;;7.90;2.58;;;;;;;;;;4985796;28;20711;-75
2023/10/24 12:21:18;;;;;;;4.13;2.63;;;;;;;;;;4983953;28;20026;-74
2023/10/24 12:23:44;;;;;;;4.00;2.13;;;;;;;;;;4985509;28;20521;-74
2023/10/24 12:26:09;;;;;;;3.92;1.73;;;;;;;;;;4983987;28;20707;-74
2023/10/24 12:28:36;;;;;;;5.07;1.95;;;;;;;;;;4983749;28;20475;-74
2023/10/24 12:31:02;;;;;;;3.60;1.73;;;;;;;;;;4985233;28;20072;-74
2023/10/24 12:33:28;;;;;;;3.35;1.73;;;;;;;;;;4985525;28;20869;-74
2023/10/24 12:35:55;;;;;;;5.82;1.88;;;;;;;;;;4988142;28;20022;-75
2023/10/24 12:38:21;;;;;;;3.95;1.80;;;;;;;;;;5006770;28;20041;-75
2023/10/24 12:40:47;;;;;;;4.70;1.60;;;;;;;;;;5014516;28;20046;-74
2023/10/24 12:43:12;;;;;;;3.45;1.50;;;;;;;;;;5020452;28;20112;-75
2023/10/24 12:45:41;;;;;;;3.13;1.90;;;;;;;;;;5013479;28;20516;-74
2023/10/24 12:48:10;;;;;;;3.45;1.67;;;;;;;;;;5007094;28;20567;-75
2023/10/24 12:50:36;;;;;;;5.47;1.58;;;;;;;;;;5005389;28;20045;-75
2023/10/24 12:53:01;;;;;;;3.13;1.70;;;;;;;;;;5003832;28;20041;-74
2023/10/24 12:55:27;;;;;;;4.28;1.70;;;;;;;;;;5002117;28;20038;-75
2023/10/24 12:57:52;;;;;;;3.03;1.80;;;;;;;;;;5004363;28;20045;-75
2023/10/24 13:00:18;;;;;;;2.97;1.80;;;;;;;;;;5005230;28;20497;-75
2023/10/24 13:02:44;;;;;;;2.80;1.60;;;;;;;;;;4999541;28;20046;-75
2023/10/24 13:05:09;;;;;;;5.82;1.63;;;;;;;;;;5003377;28;20525;-74
2023/10/24 13:07:35;;;;;;;3.38;1.45;;;;;;;;;;5004626;28;20529;-74
2023/10/24 13:10:01;;;;;;;3.97;1.80;;;;;;;;;;5004350;28;20033;-74
2023/10/24 13:12:26;;;;;;;3.50;1.73;;;;;;;;;;5004658;28;20022;-75
2023/10/24 13:14:52;;;;;;;9.40;2.10;;;;;;;;;;5004820;28;20563;-74
2023/10/24 13:17:17;;;;;;;4.93;2.15;;;;;;;;;;5004215;28;20030;-74
2023/10/24 13:19:43;;;;;;;3.15;2.08;;;;;;;;;;5004498;28;20038;-75
2023/10/24 13:22:08;;;;;;;4.57;1.85;;;;;;;;;;5004466;28;20406;-74
2023/10/24 13:24:34;;;;;;;4.55;1.70;;;;;;;;;;4997347;28;20126;-74
2023/10/24 13:27:00;;;;;;;2.38;1.45;;;;;;;;;;4987009;28;20037;-74
2023/10/24 13:29:25;;;;;;;4.43;2.00;;;;;;;;;;4984743;28;20944;-74
2023/10/24 13:31:51;;;;;;;5.75;1.88;;;;;;;;;;4984100;28;20030;-75
2023/10/24 13:34:17;;;;;;;2.70;2.03;;;;;;;;;;4984284;28;20080;-75
2023/10/24 13:36:43;;;;;;;3.75;1.52;;;;;;;;;;4983179;28;20034;-75
2023/10/24 13:39:10;;;;;;;4.70;2.25;;;;;;;;;;4985475;28;20030;-75
2023/10/24 13:41:36;;;;;;;3.88;1.75;;;;;;;;;;4990745;28;20030;-75
2023/10/24 13:44:03;;;;;;;3.83;1.60;;;;;;;;;;5004147;28;20520;-75
2023/10/24 13:46:29;;;;;;;4.25;1.35;;;;;;;;;;5002992;28;20042;-74
2023/10/24 13:48:57;;;;;;;2.35;1.90;;;;;;;;;;5003974;28;20029;-75
2023/10/24 13:51:22;;;;;;;6.00;1.98;;;;;;;;;;5002994;28;20053;-75
2023/10/24 13:53:47;;;;;;;3.78;1.70;;;;;;;;;;5003413;28;20532;-75
2023/10/24 13:56:13;;;;;;;5.20;1.70;;;;;;;;;;5003091;28;20480;-74
2023/10/24 13:58:39;;;;;;;4.07;1.83;;;;;;;;;;5006657;28;20598;-75
2023/10/24 14:01:04;;;;;;;3.88;1.63;;;;;;;;;;5014675;28;20102;-75
2023/10/24 14:03:30;;;;;;;5.22;1.75;;;;;;;;;;5015719;28;20030;-75
2023/10/24 14:05:57;;;;;;;3.28;1.40;;;;;;;;;;5004572;28;20056;-75
2023/10/24 14:08:22;;;;;;;3.95;1.77;;;;;;;;;;5002532;28;20062;-75
2023/10/24 14:10:47;;;;;;;4.40;1.70;;;;;;;;;;5003954;28;20070;-75
2023/10/24 14:13:13;;;;;;;1.25;0.75;;;;;;;;;;4992344;28;20046;-75
2023/10/24 14:15:39;;;;;;;2.17;0.40;;;;;;;;;;4992529;28;20046;-74
2023/10/24 14:18:05;;;;;;;1.60;0.50;;;;;;;;;;4990510;28;20014;-75
2023/10/24 14:20:33;;;;;;;0.35;0.35;;;;;;;;;;4999393;28;20092;-74
2023/10/24 14:22:59;;;;;;;1.55;0.30;;;;;;;;;;5003939;28;20053;-75
2023/10/24 14:25:25;;;;;;;0.30;0.30;;;;;;;;;;5004185;28;20038;-74
2023/10/24 14:27:51;;;;;;;2.17;0.60;;;;;;;;;;5003352;28;20037;-74
2023/10/24 14:30:16;;;;;;;0.77;0.50;;;;;;;;;;4987944;28;20049;-75
2023/10/24 14:32:42;;;;;;;1.80;0.40;;;;;;;;;;4984740;28;20081;-75
2023/10/24 14:35:08;;;;;;;1.17;0.60;;;;;;;;;;4983221;28;20069;-75